sensor_id;sensor_type;location;lat;lon;timestamp;P1;durP1;ratioP1;P2;durP2;ratioP2
75746;SDS011;70632;52.232;21.038;2023-12-20T00:01:36;38.22;;;19.23;;
75746;SDS011;70632;52.232;21.038;2023-12-20T00:04:02;38.63;;;18.60;;
75746;SDS011;70632;52.232;21.038;2023-12-20T00:06:29;37.53;;;18.52;;
75746;SDS011;70632;52.232;21.038;2023-12-20T00:08:55;31.70;;;15.35;;
75746;SDS011;70632;52.232;21.038;2023-12-20T00:11:21;39.35;;;19.67;;
75746;SDS011;70632;52.232;21.038;2023-12-20T00:13:46;32.15;;;15.50;;
75746;SDS011;70632;52.232;21.038;2023-12-20T00:16:12;26.75;;;15.02;;
75746;SDS011;70632;52.232;21.038;2023-12-20T00:18:38;28.95;;;15.13;;
75746;SDS011;70632;52.232;21.038;2023-12-20T00:21:04;34.22;;;17.05;;
75746;SDS011;70632;52.232;21.038;2023-12-20T00:23:29;33.58;;;18.10;;
75746;SDS011;70632;52.232;21.038;2023-12-20T00:25:55;29.60;;;14.95;;
75746;SDS011;70632;52.232;21.038;2023-12-20T00:28:21;33.92;;;17.50;;
75746;SDS011;70632;52.232;21.038;2023-12-20T00:30:47;36.72;;;16.77;;
75746;SDS011;70632;52.232;21.038;2023-12-20T00:33:13;24.60;;;12.30;;
75746;SDS011;70632;52.232;21.038;2023-12-20T00:35:39;25.48;;;13.90;;
75746;SDS011;70632;52.232;21.038;2023-12-20T00:38:04;31.95;;;14.05;;
75746;SDS011;70632;52.232;21.038;2023-12-20T00:40:34;34.53;;;18.20;;
75746;SDS011;70632;52.232;21.038;2023-12-20T00:43:00;32.10;;;16.77;;
75746;SDS011;70632;52.232;21.038;2023-12-20T00:45:25;30.90;;;17.15;;
75746;SDS011;70632;52.232;21.038;2023-12-20T00:47:51;28.67;;;13.68;;
75746;SDS011;70632;52.232;21.038;2023-12-20T00:50:17;33.35;;;16.95;;
75746;SDS011;70632;52.232;21.038;2023-12-20T00:52:43;27.80;;;14.57;;
75746;SDS011;70632;52.232;21.038;2023-12-20T00:55:09;31.50;;;17.30;;
75746;SDS011;70632;52.232;21.038;2023-12-20T00:57:35;32.88;;;17.60;;
75746;SDS011;70632;52.232;21.038;2023-12-20T01:00:01;34.05;;;18.17;;
75746;SDS011;70632;52.232;21.038;2023-12-20T01:02:27;33.70;;;17.23;;
75746;SDS011;70632;52.232;21.038;2023-12-20T01:04:53;36.60;;;17.65;;
75746;SDS011;70632;52.232;21.038;2023-12-20T01:07:18;34.85;;;17.75;;
75746;SDS011;70632;52.232;21.038;2023-12-20T01:09:44;32.15;;;16.98;;
75746;SDS011;70632;52.232;21.038;2023-12-20T01:12:10;27.25;;;15.15;;
75746;SDS011;70632;52.232;21.038;2023-12-20T01:14:36;32.38;;;16.15;;
75746;SDS011;70632;52.232;21.038;2023-12-20T01:17:01;29.73;;;16.92;;
75746;SDS011;70632;52.232;21.038;2023-12-20T01:19:27;26.83;;;15.45;;
75746;SDS011;70632;52.232;21.038;2023-12-20T01:21:54;30.05;;;15.98;;
75746;SDS011;70632;52.232;21.038;2023-12-20T01:24:20;28.48;;;15.63;;
75746;SDS011;70632;52.232;21.038;2023-12-20T01:26:46;28.23;;;14.90;;
75746;SDS011;70632;52.232;21.038;2023-12-20T01:29:12;24.27;;;13.02;;
75746;SDS011;70632;52.232;21.038;2023-12-20T01:31:39;34.53;;;16.75;;
75746;SDS011;70632;52.232;21.038;2023-12-20T01:34:06;31.60;;;15.95;;
75746;SDS011;70632;52.232;21.038;2023-12-20T01:36:31;31.13;;;16.02;;
75746;SDS011;70632;52.232;21.038;2023-12-20T01:38:57;26.27;;;13.45;;
75746;SDS011;70632;52.232;21.038;2023-12-20T01:41:23;30.88;;;16.40;;
75746;SDS011;70632;52.232;21.038;2023-12-20T01:43:49;30.05;;;16.63;;
75746;SDS011;70632;52.232;21.038;2023-12-20T01:46:15;30.20;;;16.70;;
75746;SDS011;70632;52.232;21.038;2023-12-20T01:48:41;29.75;;;14.30;;
75746;SDS011;70632;52.232;21.038;2023-12-20T01:51:07;26.77;;;14.50;;
75746;SDS011;70632;52.232;21.038;2023-12-20T01:53:33;32.92;;;17.45;;
75746;SDS011;70632;52.232;21.038;2023-12-20T01:55:59;25.90;;;12.95;;
75746;SDS011;70632;52.232;21.038;2023-12-20T01:58:27;28.95;;;14.15;;
75746;SDS011;70632;52.232;21.038;2023-12-20T02:00:52;28.13;;;15.75;;
75746;SDS011;70632;52.232;21.038;2023-12-20T02:03:19;25.88;;;15.02;;
75746;SDS011;70632;52.232;21.038;2023-12-20T02:05:46;23.90;;;13.00;;
75746;SDS011;70632;52.232;21.038;2023-12-20T02:08:13;27.20;;;13.70;;
75746;SDS011;70632;52.232;21.038;2023-12-20T02:10:39;26.10;;;13.82;;
75746;SDS011;70632;52.232;21.038;2023-12-20T02:13:06;24.10;;;12.68;;
75746;SDS011;70632;52.232;21.038;2023-12-20T02:15:32;21.70;;;10.30;;
75746;SDS011;70632;52.232;21.038;2023-12-20T02:17:57;20.45;;;10.80;;
75746;SDS011;70632;52.232;21.038;2023-12-20T02:20:24;20.40;;;11.55;;
75746;SDS011;70632;52.232;21.038;2023-12-20T02:22:49;21.38;;;11.50;;
75746;SDS011;70632;52.232;21.038;2023-12-20T02:25:15;16.25;;;8.68;;
75746;SDS011;70632;52.232;21.038;2023-12-20T02:27:41;16.33;;;9.27;;
75746;SDS011;70632;52.232;21.038;2023-12-20T02:30:07;21.02;;;10.90;;
75746;SDS011;70632;52.232;21.038;2023-12-20T02:32:34;19.20;;;9.93;;
75746;SDS011;70632;52.232;21.038;2023-12-20T02:35:00;17.23;;;9.55;;
75746;SDS011;70632;52.232;21.038;2023-12-20T02:37:25;13.80;;;7.68;;
75746;SDS011;70632;52.232;21.038;2023-12-20T02:39:51;17.00;;;8.40;;
75746;SDS011;70632;52.232;21.038;2023-12-20T02:42:17;16.23;;;7.97;;
75746;SDS011;70632;52.232;21.038;2023-12-20T02:44:42;15.77;;;8.20;;
75746;SDS011;70632;52.232;21.038;2023-12-20T02:47:08;13.73;;;7.95;;
75746;SDS011;70632;52.232;21.038;2023-12-20T02:49:34;13.27;;;6.20;;
75746;SDS011;70632;52.232;21.038;2023-12-20T02:51:59;11.18;;;6.32;;
75746;SDS011;70632;52.232;21.038;2023-12-20T02:54:25;14.95;;;8.10;;
75746;SDS011;70632;52.232;21.038;2023-12-20T02:56:51;9.60;;;5.28;;
75746;SDS011;70632;52.232;21.038;2023-12-20T02:59:16;14.85;;;6.95;;
75746;SDS011;70632;52.232;21.038;2023-12-20T03:01:44;10.25;;;5.72;;
75746;SDS011;70632;52.232;21.038;2023-12-20T03:04:10;9.10;;;4.60;;
75746;SDS011;70632;52.232;21.038;2023-12-20T03:06:36;10.30;;;5.22;;
75746;SDS011;70632;52.232;21.038;2023-12-20T03:09:02;9.15;;;5.10;;
75746;SDS011;70632;52.232;21.038;2023-12-20T03:11:28;9.40;;;4.93;;
75746;SDS011;70632;52.232;21.038;2023-12-20T03:13:54;6.78;;;4.60;;
75746;SDS011;70632;52.232;21.038;2023-12-20T03:16:23;8.75;;;4.65;;
75746;SDS011;70632;52.232;21.038;2023-12-20T03:18:48;6.55;;;3.67;;
75746;SDS011;70632;52.232;21.038;2023-12-20T03:21:14;7.32;;;4.13;;
75746;SDS011;70632;52.232;21.038;2023-12-20T03:23:40;6.75;;;4.35;;
75746;SDS011;70632;52.232;21.038;2023-12-20T03:26:07;7.72;;;4.65;;
75746;SDS011;70632;52.232;21.038;2023-12-20T03:28:33;7.03;;;4.18;;
75746;SDS011;70632;52.232;21.038;2023-12-20T03:30:59;7.47;;;4.18;;
75746;SDS011;70632;52.232;21.038;2023-12-20T03:33:25;9.57;;;5.43;;
75746;SDS011;70632;52.232;21.038;2023-12-20T03:35:51;9.75;;;5.07;;
75746;SDS011;70632;52.232;21.038;2023-12-20T03:38:17;11.82;;;5.80;;
75746;SDS011;70632;52.232;21.038;2023-12-20T03:40:42;9.25;;;5.43;;
75746;SDS011;70632;52.232;21.038;2023-12-20T03:43:08;8.73;;;5.72;;
75746;SDS011;70632;52.232;21.038;2023-12-20T03:45:34;10.15;;;6.00;;
75746;SDS011;70632;52.232;21.038;2023-12-20T03:47:59;10.80;;;5.85;;
75746;SDS011;70632;52.232;21.038;2023-12-20T03:50:25;10.30;;;4.78;;
75746;SDS011;70632;52.232;21.038;2023-12-20T03:52:52;10.07;;;4.93;;
75746;SDS011;70632;52.232;21.038;2023-12-20T03:55:18;10.18;;;5.68;;
75746;SDS011;70632;52.232;21.038;2023-12-20T03:57:43;10.23;;;5.78;;
75746;SDS011;70632;52.232;21.038;2023-12-20T04:00:10;8.82;;;4.60;;
75746;SDS011;70632;52.232;21.038;2023-12-20T04:02:36;8.63;;;5.60;;
75746;SDS011;70632;52.232;21.038;2023-12-20T04:05:06;9.23;;;4.70;;
75746;SDS011;70632;52.232;21.038;2023-12-20T04:07:32;8.82;;;5.07;;
75746;SDS011;70632;52.232;21.038;2023-12-20T04:09:58;9.38;;;5.82;;
75746;SDS011;70632;52.232;21.038;2023-12-20T04:12:24;10.93;;;5.63;;
75746;SDS011;70632;52.232;21.038;2023-12-20T04:14:50;9.45;;;6.05;;
75746;SDS011;70632;52.232;21.038;2023-12-20T04:17:16;10.40;;;6.85;;
75746;SDS011;70632;52.232;21.038;2023-12-20T04:19:42;10.88;;;6.40;;
75746;SDS011;70632;52.232;21.038;2023-12-20T04:22:08;11.77;;;6.85;;
75746;SDS011;70632;52.232;21.038;2023-12-20T04:24:34;11.13;;;6.38;;
75746;SDS011;70632;52.232;21.038;2023-12-20T04:27:00;12.43;;;6.45;;
75746;SDS011;70632;52.232;21.038;2023-12-20T04:29:26;14.48;;;7.07;;
75746;SDS011;70632;52.232;21.038;2023-12-20T04:31:51;13.02;;;6.97;;
75746;SDS011;70632;52.232;21.038;2023-12-20T04:34:17;13.50;;;7.25;;
75746;SDS011;70632;52.232;21.038;2023-12-20T04:36:43;10.05;;;6.40;;
75746;SDS011;70632;52.232;21.038;2023-12-20T04:39:09;12.32;;;7.80;;
75746;SDS011;70632;52.232;21.038;2023-12-20T04:41:36;13.88;;;7.38;;
75746;SDS011;70632;52.232;21.038;2023-12-20T04:44:02;15.52;;;7.80;;
75746;SDS011;70632;52.232;21.038;2023-12-20T04:46:28;12.60;;;7.22;;
75746;SDS011;70632;52.232;21.038;2023-12-20T04:48:53;13.25;;;7.13;;
75746;SDS011;70632;52.232;21.038;2023-12-20T04:51:19;15.02;;;8.63;;
75746;SDS011;70632;52.232;21.038;2023-12-20T04:53:45;16.02;;;8.45;;
75746;SDS011;70632;52.232;21.038;2023-12-20T04:56:11;16.90;;;8.93;;
75746;SDS011;70632;52.232;21.038;2023-12-20T04:58:37;14.55;;;8.77;;
75746;SDS011;70632;52.232;21.038;2023-12-20T05:01:03;15.57;;;9.13;;
75746;SDS011;70632;52.232;21.038;2023-12-20T05:03:31;19.08;;;8.85;;
75746;SDS011;70632;52.232;21.038;2023-12-20T05:05:56;15.98;;;8.90;;
75746;SDS011;70632;52.232;21.038;2023-12-20T05:08:22;14.43;;;7.70;;
75746;SDS011;70632;52.232;21.038;2023-12-20T05:10:48;16.33;;;9.85;;
75746;SDS011;70632;52.232;21.038;2023-12-20T05:13:14;17.42;;;9.25;;
75746;SDS011;70632;52.232;21.038;2023-12-20T05:15:39;16.58;;;9.27;;
75746;SDS011;70632;52.232;21.038;2023-12-20T05:18:05;17.40;;;9.68;;
75746;SDS011;70632;52.232;21.038;2023-12-20T05:20:31;15.20;;;7.72;;
75746;SDS011;70632;52.232;21.038;2023-12-20T05:22:57;17.88;;;9.05;;
75746;SDS011;70632;52.232;21.038;2023-12-20T05:25:22;15.55;;;9.52;;
75746;SDS011;70632;52.232;21.038;2023-12-20T05:27:48;18.80;;;9.95;;
75746;SDS011;70632;52.232;21.038;2023-12-20T05:30:14;20.50;;;9.27;;
75746;SDS011;70632;52.232;21.038;2023-12-20T05:32:40;18.17;;;9.43;;
75746;SDS011;70632;52.232;21.038;2023-12-20T05:35:06;17.50;;;9.77;;
75746;SDS011;70632;52.232;21.038;2023-12-20T05:37:32;17.10;;;9.15;;
75746;SDS011;70632;52.232;21.038;2023-12-20T05:39:58;17.58;;;9.98;;
75746;SDS011;70632;52.232;21.038;2023-12-20T05:42:24;13.48;;;7.50;;
75746;SDS011;70632;52.232;21.038;2023-12-20T05:44:50;18.35;;;8.73;;
75746;SDS011;70632;52.232;21.038;2023-12-20T05:47:15;16.17;;;8.65;;
75746;SDS011;70632;52.232;21.038;2023-12-20T05:49:43;14.38;;;8.30;;
75746;SDS011;70632;52.232;21.038;2023-12-20T05:52:09;18.23;;;9.65;;
75746;SDS011;70632;52.232;21.038;2023-12-20T05:54:35;18.10;;;9.60;;
75746;SDS011;70632;52.232;21.038;2023-12-20T05:57:01;19.50;;;9.82;;
75746;SDS011;70632;52.232;21.038;2023-12-20T05:59:26;19.25;;;9.77;;
75746;SDS011;70632;52.232;21.038;2023-12-20T06:01:52;20.30;;;10.13;;
75746;SDS011;70632;52.232;21.038;2023-12-20T06:04:18;18.75;;;10.85;;
75746;SDS011;70632;52.232;21.038;2023-12-20T06:06:43;21.13;;;10.63;;
75746;SDS011;70632;52.232;21.038;2023-12-20T06:09:09;19.33;;;9.45;;
75746;SDS011;70632;52.232;21.038;2023-12-20T06:11:36;17.83;;;9.77;;
75746;SDS011;70632;52.232;21.038;2023-12-20T06:14:01;14.25;;;7.25;;
75746;SDS011;70632;52.232;21.038;2023-12-20T06:16:27;19.80;;;9.23;;
75746;SDS011;70632;52.232;21.038;2023-12-20T06:18:53;17.80;;;8.98;;
75746;SDS011;70632;52.232;21.038;2023-12-20T06:21:19;19.17;;;9.93;;
75746;SDS011;70632;52.232;21.038;2023-12-20T06:23:45;15.52;;;9.18;;
75746;SDS011;70632;52.232;21.038;2023-12-20T06:26:11;15.23;;;8.27;;
75746;SDS011;70632;52.232;21.038;2023-12-20T06:28:36;17.58;;;8.73;;
75746;SDS011;70632;52.232;21.038;2023-12-20T06:31:02;16.05;;;7.95;;
75746;SDS011;70632;52.232;21.038;2023-12-20T06:33:29;17.02;;;8.20;;
75746;SDS011;70632;52.232;21.038;2023-12-20T06:35:57;17.33;;;9.57;;
75746;SDS011;70632;52.232;21.038;2023-12-20T06:38:23;18.75;;;8.98;;
75746;SDS011;70632;52.232;21.038;2023-12-20T06:40:49;16.38;;;9.20;;
75746;SDS011;70632;52.232;21.038;2023-12-20T06:43:16;16.98;;;8.43;;
75746;SDS011;70632;52.232;21.038;2023-12-20T06:45:44;19.77;;;9.82;;
75746;SDS011;70632;52.232;21.038;2023-12-20T06:48:10;13.95;;;7.72;;
75746;SDS011;70632;52.232;21.038;2023-12-20T06:50:38;18.35;;;8.80;;
75746;SDS011;70632;52.232;21.038;2023-12-20T06:53:05;17.27;;;7.95;;
75746;SDS011;70632;52.232;21.038;2023-12-20T06:55:33;13.55;;;7.65;;
75746;SDS011;70632;52.232;21.038;2023-12-20T06:58:01;16.40;;;8.75;;
75746;SDS011;70632;52.232;21.038;2023-12-20T07:00:27;17.08;;;9.73;;
75746;SDS011;70632;52.232;21.038;2023-12-20T07:02:53;14.93;;;8.50;;
75746;SDS011;70632;52.232;21.038;2023-12-20T07:05:19;18.02;;;8.82;;
75746;SDS011;70632;52.232;21.038;2023-12-20T07:07:45;17.83;;;8.98;;
75746;SDS011;70632;52.232;21.038;2023-12-20T07:10:12;18.10;;;8.35;;
75746;SDS011;70632;52.232;21.038;2023-12-20T07:12:38;19.05;;;9.70;;
75746;SDS011;70632;52.232;21.038;2023-12-20T07:15:07;16.40;;;8.75;;
75746;SDS011;70632;52.232;21.038;2023-12-20T07:17:33;18.35;;;8.80;;
75746;SDS011;70632;52.232;21.038;2023-12-20T07:19:59;17.50;;;9.32;;
75746;SDS011;70632;52.232;21.038;2023-12-20T07:22:29;20.10;;;10.95;;
75746;SDS011;70632;52.232;21.038;2023-12-20T07:24:57;21.20;;;9.75;;
75746;SDS011;70632;52.232;21.038;2023-12-20T07:27:23;20.52;;;9.15;;
75746;SDS011;70632;52.232;21.038;2023-12-20T07:29:49;19.35;;;10.48;;
75746;SDS011;70632;52.232;21.038;2023-12-20T07:32:15;17.40;;;9.23;;
75746;SDS011;70632;52.232;21.038;2023-12-20T07:34:41;20.55;;;10.00;;
75746;SDS011;70632;52.232;21.038;2023-12-20T07:37:06;21.77;;;9.75;;
75746;SDS011;70632;52.232;21.038;2023-12-20T07:39:35;19.88;;;9.20;;
75746;SDS011;70632;52.232;21.038;2023-12-20T07:42:01;18.90;;;9.38;;
75746;SDS011;70632;52.232;21.038;2023-12-20T07:44:27;17.85;;;8.50;;
75746;SDS011;70632;52.232;21.038;2023-12-20T07:46:53;18.08;;;8.80;;
75746;SDS011;70632;52.232;21.038;2023-12-20T07:49:20;20.30;;;8.30;;
75746;SDS011;70632;52.232;21.038;2023-12-20T07:51:46;21.13;;;9.35;;
75746;SDS011;70632;52.232;21.038;2023-12-20T07:54:12;22.88;;;9.35;;
75746;SDS011;70632;52.232;21.038;2023-12-20T07:56:37;14.95;;;7.40;;
75746;SDS011;70632;52.232;21.038;2023-12-20T07:59:05;18.40;;;8.57;;
75746;SDS011;70632;52.232;21.038;2023-12-20T08:01:31;15.57;;;7.90;;
75746;SDS011;70632;52.232;21.038;2023-12-20T08:03:56;19.67;;;9.65;;
75746;SDS011;70632;52.232;21.038;2023-12-20T08:06:22;17.33;;;9.27;;
75746;SDS011;70632;52.232;21.038;2023-12-20T08:08:49;18.20;;;8.68;;
75746;SDS011;70632;52.232;21.038;2023-12-20T08:11:14;17.48;;;8.65;;
75746;SDS011;70632;52.232;21.038;2023-12-20T08:13:40;14.45;;;7.50;;
75746;SDS011;70632;52.232;21.038;2023-12-20T08:16:06;17.08;;;8.35;;
75746;SDS011;70632;52.232;21.038;2023-12-20T08:18:32;17.67;;;8.68;;
75746;SDS011;70632;52.232;21.038;2023-12-20T08:20:59;13.82;;;7.68;;
75746;SDS011;70632;52.232;21.038;2023-12-20T08:23:25;15.40;;;8.23;;
75746;SDS011;70632;52.232;21.038;2023-12-20T08:25:51;13.23;;;6.60;;
75746;SDS011;70632;52.232;21.038;2023-12-20T08:28:20;16.63;;;7.63;;
75746;SDS011;70632;52.232;21.038;2023-12-20T08:30:46;16.67;;;8.68;;
75746;SDS011;70632;52.232;21.038;2023-12-20T08:33:12;17.40;;;8.43;;
75746;SDS011;70632;52.232;21.038;2023-12-20T08:35:40;15.82;;;7.43;;
75746;SDS011;70632;52.232;21.038;2023-12-20T08:38:06;17.33;;;8.23;;
75746;SDS011;70632;52.232;21.038;2023-12-20T08:40:32;17.48;;;8.20;;
75746;SDS011;70632;52.232;21.038;2023-12-20T08:42:58;12.82;;;6.68;;
75746;SDS011;70632;52.232;21.038;2023-12-20T08:45:27;14.18;;;7.43;;
75746;SDS011;70632;52.232;21.038;2023-12-20T08:47:53;15.77;;;7.90;;
75746;SDS011;70632;52.232;21.038;2023-12-20T08:50:20;15.30;;;7.57;;
75746;SDS011;70632;52.232;21.038;2023-12-20T08:52:47;14.38;;;6.82;;
75746;SDS011;70632;52.232;21.038;2023-12-20T08:55:12;13.40;;;6.90;;
75746;SDS011;70632;52.232;21.038;2023-12-20T08:57:40;16.27;;;7.43;;
75746;SDS011;70632;52.232;21.038;2023-12-20T09:00:06;14.38;;;7.28;;
75746;SDS011;70632;52.232;21.038;2023-12-20T09:02:33;13.30;;;7.68;;
75746;SDS011;70632;52.232;21.038;2023-12-20T09:05:01;14.23;;;6.65;;
75746;SDS011;70632;52.232;21.038;2023-12-20T09:07:28;15.25;;;8.10;;
75746;SDS011;70632;52.232;21.038;2023-12-20T09:09:55;15.02;;;7.07;;
75746;SDS011;70632;52.232;21.038;2023-12-20T09:12:22;13.60;;;7.45;;
75746;SDS011;70632;52.232;21.038;2023-12-20T09:14:48;19.77;;;7.68;;
75746;SDS011;70632;52.232;21.038;2023-12-20T09:17:15;13.30;;;7.43;;
75746;SDS011;70632;52.232;21.038;2023-12-20T09:19:42;16.52;;;7.63;;
75746;SDS011;70632;52.232;21.038;2023-12-20T09:22:11;14.23;;;6.95;;
75746;SDS011;70632;52.232;21.038;2023-12-20T09:24:37;15.02;;;8.18;;
75746;SDS011;70632;52.232;21.038;2023-12-20T09:29:32;18.27;;;8.48;;
75746;SDS011;70632;52.232;21.038;2023-12-20T09:31:58;13.98;;;7.20;;
75746;SDS011;70632;52.232;21.038;2023-12-20T09:34:23;17.10;;;8.25;;
75746;SDS011;70632;52.232;21.038;2023-12-20T09:36:51;17.30;;;8.18;;
75746;SDS011;70632;52.232;21.038;2023-12-20T09:39:17;16.95;;;8.65;;
75746;SDS011;70632;52.232;21.038;2023-12-20T09:41:59;17.00;;;8.88;;
75746;SDS011;70632;52.232;21.038;2023-12-20T09:44:27;15.48;;;7.88;;
75746;SDS011;70632;52.232;21.038;2023-12-20T09:46:54;16.38;;;7.45;;
75746;SDS011;70632;52.232;21.038;2023-12-20T09:49:21;16.10;;;7.13;;
75746;SDS011;70632;52.232;21.038;2023-12-20T09:51:50;17.60;;;8.43;;
75746;SDS011;70632;52.232;21.038;2023-12-20T09:54:17;15.70;;;7.50;;
75746;SDS011;70632;52.232;21.038;2023-12-20T09:56:44;14.43;;;6.65;;
75746;SDS011;70632;52.232;21.038;2023-12-20T09:59:10;12.68;;;6.57;;
75746;SDS011;70632;52.232;21.038;2023-12-20T10:01:36;15.40;;;7.38;;
75746;SDS011;70632;52.232;21.038;2023-12-20T10:04:06;14.27;;;7.10;;
75746;SDS011;70632;52.232;21.038;2023-12-20T10:09:06;15.95;;;7.65;;
75746;SDS011;70632;52.232;21.038;2023-12-20T10:11:32;13.55;;;7.53;;
75746;SDS011;70632;52.232;21.038;2023-12-20T10:14:00;11.02;;;5.97;;
75746;SDS011;70632;52.232;21.038;2023-12-20T10:16:27;12.95;;;7.00;;
75746;SDS011;70632;52.232;21.038;2023-12-20T10:18:54;11.45;;;6.38;;
75746;SDS011;70632;52.232;21.038;2023-12-20T10:21:20;10.00;;;5.43;;
75746;SDS011;70632;52.232;21.038;2023-12-20T10:23:46;12.75;;;6.03;;
75746;SDS011;70632;52.232;21.038;2023-12-20T10:26:25;11.85;;;6.95;;
75746;SDS011;70632;52.232;21.038;2023-12-20T10:29:00;12.57;;;6.30;;
75746;SDS011;70632;52.232;21.038;2023-12-20T10:31:33;15.77;;;7.75;;
75746;SDS011;70632;52.232;21.038;2023-12-20T10:34:02;12.45;;;6.72;;
75746;SDS011;70632;52.232;21.038;2023-12-20T10:36:32;11.45;;;5.90;;
75746;SDS011;70632;52.232;21.038;2023-12-20T10:38:58;12.18;;;5.13;;
75746;SDS011;70632;52.232;21.038;2023-12-20T10:41:31;11.70;;;6.15;;
75746;SDS011;70632;52.232;21.038;2023-12-20T10:46:27;15.13;;;6.57;;
75746;SDS011;70632;52.232;21.038;2023-12-20T10:48:55;16.40;;;7.13;;
75746;SDS011;70632;52.232;21.038;2023-12-20T10:51:22;12.77;;;6.55;;
75746;SDS011;70632;52.232;21.038;2023-12-20T10:53:49;11.55;;;6.32;;
75746;SDS011;70632;52.232;21.038;2023-12-20T10:56:17;13.13;;;6.80;;
75746;SDS011;70632;52.232;21.038;2023-12-20T10:58:43;14.63;;;7.53;;
75746;SDS011;70632;52.232;21.038;2023-12-20T11:01:12;13.05;;;6.47;;
75746;SDS011;70632;52.232;21.038;2023-12-20T11:03:39;10.90;;;6.43;;
75746;SDS011;70632;52.232;21.038;2023-12-20T11:11:35;16.30;;;7.38;;
75746;SDS011;70632;52.232;21.038;2023-12-20T11:14:15;11.18;;;5.82;;
75746;SDS011;70632;52.232;21.038;2023-12-20T11:16:50;16.38;;;7.40;;
75746;SDS011;70632;52.232;21.038;2023-12-20T11:19:30;11.48;;;6.28;;
75746;SDS011;70632;52.232;21.038;2023-12-20T11:21:56;12.10;;;6.38;;
75746;SDS011;70632;52.232;21.038;2023-12-20T11:24:22;13.13;;;5.93;;
75746;SDS011;70632;52.232;21.038;2023-12-20T11:26:50;11.85;;;6.00;;
75746;SDS011;70632;52.232;21.038;2023-12-20T11:29:34;11.98;;;5.10;;
75746;SDS011;70632;52.232;21.038;2023-12-20T11:32:27;11.27;;;5.88;;
75746;SDS011;70632;52.232;21.038;2023-12-20T11:34:53;12.95;;;6.85;;
75746;SDS011;70632;52.232;21.038;2023-12-20T11:37:35;12.25;;;6.40;;
75746;SDS011;70632;52.232;21.038;2023-12-20T11:40:02;13.77;;;6.55;;
75746;SDS011;70632;52.232;21.038;2023-12-20T11:42:42;13.93;;;6.00;;
75746;SDS011;70632;52.232;21.038;2023-12-20T11:45:09;14.52;;;6.10;;
75746;SDS011;70632;52.232;21.038;2023-12-20T11:47:36;11.10;;;6.55;;
75746;SDS011;70632;52.232;21.038;2023-12-20T11:50:02;13.48;;;6.57;;
75746;SDS011;70632;52.232;21.038;2023-12-20T11:52:29;14.73;;;8.27;;
75746;SDS011;70632;52.232;21.038;2023-12-20T11:54:55;13.07;;;6.60;;
75746;SDS011;70632;52.232;21.038;2023-12-20T11:57:22;14.48;;;8.15;;
75746;SDS011;70632;52.232;21.038;2023-12-20T11:59:48;14.88;;;7.55;;
75746;SDS011;70632;52.232;21.038;2023-12-20T12:02:14;13.55;;;7.97;;
75746;SDS011;70632;52.232;21.038;2023-12-20T12:04:43;15.73;;;7.78;;
75746;SDS011;70632;52.232;21.038;2023-12-20T12:07:09;15.63;;;7.18;;
75746;SDS011;70632;52.232;21.038;2023-12-20T12:09:35;20.58;;;8.65;;
75746;SDS011;70632;52.232;21.038;2023-12-20T12:12:01;14.50;;;7.25;;
75746;SDS011;70632;52.232;21.038;2023-12-20T12:14:27;11.77;;;7.13;;
75746;SDS011;70632;52.232;21.038;2023-12-20T12:16:53;17.73;;;8.80;;
75746;SDS011;70632;52.232;21.038;2023-12-20T12:19:25;17.13;;;8.85;;
75746;SDS011;70632;52.232;21.038;2023-12-20T12:22:05;13.45;;;7.03;;
75746;SDS011;70632;52.232;21.038;2023-12-20T12:24:36;20.83;;;9.35;;
75746;SDS011;70632;52.232;21.038;2023-12-20T12:27:03;16.40;;;9.25;;
75746;SDS011;70632;52.232;21.038;2023-12-20T12:29:30;14.07;;;6.85;;
75746;SDS011;70632;52.232;21.038;2023-12-20T12:31:56;13.90;;;7.97;;
75746;SDS011;70632;52.232;21.038;2023-12-20T12:34:25;17.58;;;8.65;;
75746;SDS011;70632;52.232;21.038;2023-12-20T12:37:04;14.70;;;7.90;;
75746;SDS011;70632;52.232;21.038;2023-12-20T12:39:30;15.15;;;8.20;;
75746;SDS011;70632;52.232;21.038;2023-12-20T12:41:57;14.15;;;7.45;;
75746;SDS011;70632;52.232;21.038;2023-12-20T12:44:23;15.38;;;7.80;;
75746;SDS011;70632;52.232;21.038;2023-12-20T12:46:50;15.10;;;6.68;;
75746;SDS011;70632;52.232;21.038;2023-12-20T12:49:19;14.88;;;8.13;;
75746;SDS011;70632;52.232;21.038;2023-12-20T12:51:45;12.63;;;6.88;;
75746;SDS011;70632;52.232;21.038;2023-12-20T12:54:11;15.00;;;7.95;;
75746;SDS011;70632;52.232;21.038;2023-12-20T12:56:39;15.10;;;8.50;;
75746;SDS011;70632;52.232;21.038;2023-12-20T12:59:04;21.55;;;10.23;;
75746;SDS011;70632;52.232;21.038;2023-12-20T13:01:36;18.58;;;9.20;;
75746;SDS011;70632;52.232;21.038;2023-12-20T13:04:04;22.77;;;9.65;;
75746;SDS011;70632;52.232;21.038;2023-12-20T13:06:39;17.58;;;9.75;;
75746;SDS011;70632;52.232;21.038;2023-12-20T13:09:07;17.23;;;9.48;;
75746;SDS011;70632;52.232;21.038;2023-12-20T13:11:35;17.55;;;9.57;;
75746;SDS011;70632;52.232;21.038;2023-12-20T13:14:01;18.00;;;9.85;;
75746;SDS011;70632;52.232;21.038;2023-12-20T13:16:27;17.27;;;8.88;;
75746;SDS011;70632;52.232;21.038;2023-12-20T13:18:52;19.23;;;10.27;;
75746;SDS011;70632;52.232;21.038;2023-12-20T13:21:18;18.27;;;9.55;;
75746;SDS011;70632;52.232;21.038;2023-12-20T13:23:44;20.48;;;10.10;;
75746;SDS011;70632;52.232;21.038;2023-12-20T13:26:10;19.90;;;9.60;;
75746;SDS011;70632;52.232;21.038;2023-12-20T13:28:36;22.73;;;11.02;;
75746;SDS011;70632;52.232;21.038;2023-12-20T13:31:02;18.48;;;9.25;;
75746;SDS011;70632;52.232;21.038;2023-12-20T13:33:28;15.75;;;7.90;;
75746;SDS011;70632;52.232;21.038;2023-12-20T13:35:54;17.23;;;8.85;;
75746;SDS011;70632;52.232;21.038;2023-12-20T13:38:21;14.77;;;7.35;;
75746;SDS011;70632;52.232;21.038;2023-12-20T13:40:47;17.42;;;9.55;;
75746;SDS011;70632;52.232;21.038;2023-12-20T13:43:12;13.57;;;7.78;;
75746;SDS011;70632;52.232;21.038;2023-12-20T13:45:39;18.98;;;9.70;;
75746;SDS011;70632;52.232;21.038;2023-12-20T13:48:05;18.75;;;9.48;;
75746;SDS011;70632;52.232;21.038;2023-12-20T13:50:31;18.05;;;8.77;;
75746;SDS011;70632;52.232;21.038;2023-12-20T13:52:56;20.10;;;10.40;;
75746;SDS011;70632;52.232;21.038;2023-12-20T13:55:22;19.27;;;10.50;;
75746;SDS011;70632;52.232;21.038;2023-12-20T13:57:50;20.13;;;9.38;;
75746;SDS011;70632;52.232;21.038;2023-12-20T14:00:17;17.77;;;8.30;;
75746;SDS011;70632;52.232;21.038;2023-12-20T14:02:42;19.30;;;9.52;;
75746;SDS011;70632;52.232;21.038;2023-12-20T14:05:09;19.52;;;8.20;;
75746;SDS011;70632;52.232;21.038;2023-12-20T14:07:35;16.95;;;8.57;;
75746;SDS011;70632;52.232;21.038;2023-12-20T14:10:02;20.85;;;8.80;;
75746;SDS011;70632;52.232;21.038;2023-12-20T14:12:28;15.57;;;7.70;;
75746;SDS011;70632;52.232;21.038;2023-12-20T14:14:54;16.10;;;6.72;;
75746;SDS011;70632;52.232;21.038;2023-12-20T14:17:21;12.30;;;6.60;;
75746;SDS011;70632;52.232;21.038;2023-12-20T14:19:47;14.25;;;5.93;;
75746;SDS011;70632;52.232;21.038;2023-12-20T14:22:14;11.77;;;6.43;;
75746;SDS011;70632;52.232;21.038;2023-12-20T14:24:42;14.07;;;6.50;;
75746;SDS011;70632;52.232;21.038;2023-12-20T14:27:08;13.43;;;7.75;;
75746;SDS011;70632;52.232;21.038;2023-12-20T14:29:35;12.95;;;7.10;;